EFKT

Kittila Airport

Kittila, Finland
METAR EFKT 162320Z AUTO 17008KT 9999 OVC004 M08/M09 Q1001
Observed Flight Rules
Dec-16 @ 23:20 UTC (48 minutes ago) Instrument Flight Rules
Wind Visibility Clouds
170° at 8 knots 10,000+ meters
  • Overcast at 400' AGL
Temperatures Readings
Current -8°C / 18°F
Dewpoint -9°C / 16°F
Humidity 93%
Altimeter 29.56" Hg
Pressure 1001 hPa
Elevation 643
METAR EFKT 162320Z AUTO 17008KT 9999 OVC004 M08/M09 Q1001
Observed Flight Rules
Dec-16 @ 23:20 UTC
(48 minutes ago)
LIFR
Wind Visibility
170° at 8 knots 10,000+ meters
Clouds
  • Overcast at 400' AGL
Temperature Dewpoint
-8°C / 18°F -9°C / 16°F
Humidity Altimeter Pressure
93% 29.56" Hg 1001 hPa